Terminal Aerodrome Forecast
Issued by NWS

Home | Current Version | Previous Version | Text Only | Print | Product List | Glossary On
Versions: 1 2 3 4 5 6 7 8 9 10 11 12 13 14 15 16 17 18 19 20 21 22 23 24 25 26 27 28
000
FTUS42 KGSP 041125
TAFAND
TAF
KAND 041125Z 0412/0512 24010KT P6SM SHRA BKN030 OVC080
     FM041500 24012G18KT P6SM VCSH BKN070
     FM042100 24013G23KT P6SM -SHRA VCTS BKN110CB
     FM050000 24009KT P6SM BKN120 OVC250
     FM050900 00000KT P6SM BKN120 OVC250=

USA.gov is the U.S. government's official web portal to all federal, state and local government web resources and services.